Time;durP1;ratioP1;P1;durP2;ratioP2;P2;SDS_P1;SDS_P2;PMS_P1;PMS_P2;Temp;Humidity;BMP_temperature;BMP_pressure;BME280_temperature;BME280_humidity;BME280_pressure;Samples;Min_cycle;Max_cycle;Signal;HPM_P1;HPM_P2
2023/08/21 00:00:35;;;;;;;17.60;14.43;;;19.20;99.90;21.40;97513.00;;;;5057557;28;20216;-70
2023/08/21 00:03:24;;;;;;;16.27;14.03;;;19.20;99.90;21.30;97520.00;;;;5062281;28;20211;-71
2023/08/21 00:06:13;;;;;;;20.73;15.57;;;19.10;99.90;21.20;97512.00;;;;5061261;28;20671;-70
2023/08/21 00:09:04;;;;;;;22.40;14.37;;;19.10;99.90;21.10;97505.00;;;;5051068;28;20580;-70
2023/08/21 00:11:52;;;;;;;22.17;15.50;;;18.90;99.90;21.40;97504.00;;;;5063960;28;20189;-70
2023/08/21 00:14:41;;;;;;;20.30;15.87;;;19.00;99.90;21.10;97500.00;;;;5053512;28;20229;-70
2023/08/21 00:17:30;;;;;;;16.33;14.27;;;19.00;99.90;20.50;97502.00;;;;5054077;28;20199;-69
2023/08/21 00:20:19;;;;;;;16.47;14.10;;;18.80;99.90;20.90;97511.00;;;;5060218;28;20200;-70
2023/08/21 00:23:08;;;;;;;18.03;16.07;;;18.80;99.90;21.10;97495.00;;;;5061769;28;20586;-70
2023/08/21 00:25:58;;;;;;;16.47;14.33;;;18.80;99.90;21.00;97496.00;;;;5052574;28;20200;-70
2023/08/21 00:28:47;;;;;;;18.53;14.60;;;18.80;99.90;20.70;97495.00;;;;5058946;28;20200;-69
2023/08/21 00:31:36;;;;;;;17.93;16.03;;;18.70;99.90;20.60;97500.00;;;;5059484;28;20585;-70
2023/08/21 00:34:25;;;;;;;16.70;14.53;;;18.60;99.90;21.10;97496.00;;;;5061758;28;20220;-70
2023/08/21 00:37:13;;;;;;;21.10;16.05;;;18.60;99.90;21.30;97504.00;;;;5056381;28;20204;-70
2023/08/21 00:40:02;;;;;;;18.07;16.17;;;18.70;99.90;21.40;97500.00;;;;5059881;28;20192;-70
2023/08/21 00:42:52;;;;;;;17.17;14.80;;;18.80;99.90;21.50;97509.00;;;;5059015;28;20220;-70
2023/08/21 00:45:45;;;;;;;19.43;15.27;;;18.90;99.90;21.40;97497.00;;;;5060607;28;20226;-70
2023/08/21 00:48:35;;;;;;;20.47;14.90;;;18.90;99.90;21.20;97503.00;;;;5056012;28;20576;-70
2023/08/21 00:51:24;;;;;;;18.43;16.40;;;18.90;99.90;21.10;97502.00;;;;5059535;28;20204;-70
2023/08/21 00:54:13;;;;;;;18.50;14.40;;;19.00;99.90;21.00;97500.00;;;;5055522;28;20223;-69
2023/08/21 00:57:02;;;;;;;18.30;14.87;;;18.90;99.90;21.60;97502.00;;;;5061079;28;20205;-70
2023/08/21 00:59:52;;;;;;;19.47;15.57;;;18.90;99.90;21.50;97503.00;;;;5060376;28;20223;-70
2023/08/21 01:02:41;;;;;;;16.47;14.73;;;19.00;99.90;21.30;97495.00;;;;5062594;28;20659;-70
2023/08/21 01:05:31;;;;;;;21.07;14.47;;;19.00;99.90;21.10;97495.00;;;;5064733;28;20715;-69
2023/08/21 01:08:31;;;;;;;16.10;14.00;;;19.00;99.90;21.10;97505.00;;;;5061853;28;20196;-70
2023/08/21 01:11:25;;;;;;;15.70;14.10;;;18.80;99.90;20.70;97502.00;;;;5056575;28;20208;-70
2023/08/21 01:14:24;;;;;;;16.83;14.17;;;18.70;99.90;20.40;97501.00;;;;5063103;28;20244;-70
2023/08/21 01:17:15;;;;;;;18.17;15.47;;;18.60;99.90;20.60;97510.00;;;;5063210;28;20204;-69
2023/08/21 01:20:09;;;;;;;18.20;15.17;;;18.50;99.90;20.70;97495.00;;;;5056032;28;20227;-70
2023/08/21 01:22:58;;;;;;;20.33;16.00;;;18.50;99.90;21.00;97502.00;;;;5058162;28;20695;-71
2023/08/21 01:25:48;;;;;;;19.60;16.97;;;18.50;99.90;21.00;97500.00;;;;5049127;28;20217;-70
2023/08/21 01:28:37;;;;;;;20.07;16.73;;;18.50;99.90;21.20;97504.00;;;;5056788;28;20660;-69
2023/08/21 01:31:31;;;;;;;17.20;15.23;;;18.60;99.90;21.00;97494.00;;;;5059761;28;20218;-70
2023/08/21 01:34:21;;;;;;;17.70;14.90;;;18.70;99.90;20.60;97500.00;;;;5059001;28;20651;-71
2023/08/21 01:37:10;;;;;;;17.47;14.70;;;18.60;99.90;20.60;97505.00;;;;5058519;28;20199;-72
2023/08/21 01:39:59;;;;;;;19.13;14.20;;;18.50;99.90;20.50;97500.00;;;;5059559;28;20679;-71
2023/08/21 01:42:50;;;;;;;19.67;17.10;;;18.50;99.90;20.40;97496.00;;;;5053204;28;20196;-71
2023/08/21 01:45:38;;;;;;;20.30;16.57;;;17.80;99.90;20.60;97499.00;;;;5063251;28;20228;-71
2023/08/21 01:48:27;;;;;;;19.13;16.10;;;18.40;99.90;20.90;97511.00;;;;5056899;28;20568;-70
2023/08/21 01:51:16;;;;;;;19.37;16.90;;;18.40;99.90;20.90;97509.00;;;;5059605;28;20206;-69
2023/08/21 01:54:05;;;;;;;18.30;15.43;;;18.50;99.90;21.00;97498.00;;;;5058931;28;20232;-70
2023/08/21 01:56:54;;;;;;;17.70;15.73;;;18.50;99.90;21.30;97500.00;;;;5054685;28;20675;-70
2023/08/21 01:59:44;;;;;;;17.80;15.93;;;18.60;99.90;21.00;97502.00;;;;5062421;28;20192;-70
2023/08/21 02:02:33;;;;;;;25.10;16.17;;;18.70;99.90;21.50;97502.00;;;;5065097;28;20200;-70
2023/08/21 02:05:21;;;;;;;17.00;15.30;;;18.70;99.90;21.40;97499.00;;;;5057777;28;20822;-69
2023/08/21 02:08:13;;;;;;;18.83;14.63;;;18.80;99.90;21.10;97496.00;;;;5061989;28;20205;-69
2023/08/21 02:11:02;;;;;;;20.17;15.50;;;18.80;99.90;20.80;97490.00;;;;5057461;28;20197;-69
2023/08/21 02:13:51;;;;;;;19.47;14.97;;;18.70;99.90;20.70;97491.00;;;;5056779;28;20216;-69
2023/08/21 02:16:41;;;;;;;17.93;15.07;;;18.70;99.90;20.80;97494.00;;;;5049442;28;20201;-70
2023/08/21 02:19:30;;;;;;;19.10;15.20;;;18.60;99.90;20.30;97495.00;;;;5060031;28;20201;-70
2023/08/21 02:22:19;;;;;;;18.17;14.40;;;18.50;99.90;20.40;97500.00;;;;5060968;28;20211;-72
2023/08/21 02:25:08;;;;;;;18.00;15.80;;;18.40;99.90;20.30;97492.00;;;;5054289;28;20702;-69
2023/08/21 02:27:57;;;;;;;19.30;16.17;;;18.30;99.90;20.20;97497.00;;;;5056323;28;20204;-69
2023/08/21 02:30:46;;;;;;;19.07;15.40;;;18.30;99.90;20.20;97494.00;;;;5066882;28;20200;-69
2023/08/21 02:33:37;;;;;;;19.50;15.47;;;18.20;99.90;20.20;97514.00;;;;5055494;28;20668;-70
2023/08/21 02:36:25;;;;;;;17.97;15.43;;;18.20;99.90;20.10;97496.00;;;;5060924;28;20204;-69
2023/08/21 02:39:14;;;;;;;21.13;16.40;;;18.10;99.90;19.80;97511.00;;;;5060485;28;20224;-70
2023/08/21 02:42:03;;;;;;;18.60;15.63;;;18.10;99.90;20.20;97498.00;;;;5060814;28;20208;-70
2023/08/21 02:44:52;;;;;;;16.57;14.77;;;18.10;99.90;20.20;97498.00;;;;5065942;28;20217;-69
2023/08/21 02:47:41;;;;;;;19.13;16.13;;;18.10;99.90;19.80;97497.00;;;;5064464;28;20200;-69
2023/08/21 02:50:31;;;;;;;18.57;15.60;;;18.00;99.90;19.90;97499.00;;;;5059348;28;20204;-69
2023/08/21 02:53:20;;;;;;;18.10;15.23;;;18.00;99.90;19.80;97502.00;;;;5058423;28;20197;-70
2023/08/21 02:56:09;;;;;;;17.80;16.10;;;18.00;99.90;20.30;97514.00;;;;5056777;28;20211;-70
2023/08/21 02:58:58;;;;;;;18.53;15.57;;;18.00;99.90;20.20;97497.00;;;;5051694;28;20204;-70
2023/08/21 03:01:47;;;;;;;19.07;16.50;;;18.00;99.90;20.30;97501.00;;;;5067589;28;20575;-71
2023/08/21 03:04:35;;;;;;;21.23;16.60;;;18.00;99.90;20.70;97500.00;;;;5054045;28;20224;-70
2023/08/21 03:07:26;;;;;;;23.60;17.50;;;18.10;99.90;20.90;97512.00;;;;5058679;28;20212;-70
2023/08/21 03:10:14;;;;;;;17.07;14.27;;;18.20;99.90;20.90;97510.00;;;;5063388;28;20203;-70
2023/08/21 03:13:04;;;;;;;17.33;14.53;;;18.30;99.90;21.00;97509.00;;;;5058380;28;20189;-70
2023/08/21 03:15:52;;;;;;;18.50;16.40;;;18.40;99.90;20.90;97499.00;;;;5089528;22;20239;-65
2023/08/21 03:18:57;;;;;;;17.50;15.70;;;18.40;99.90;20.90;97497.00;;;;5059941;28;20199;-64
2023/08/21 03:21:46;;;;;;;16.77;14.97;;;18.50;99.90;20.70;97497.00;;;;5070483;28;20629;-65
2023/08/21 03:24:36;;;;;;;17.30;14.27;;;18.40;99.90;20.50;97503.00;;;;5069461;28;20874;-65
2023/08/21 03:27:26;;;;;;;18.27;16.20;;;18.40;99.90;20.10;97499.00;;;;5064055;28;20695;-65
2023/08/21 03:30:15;;;;;;;16.37;14.43;;;18.30;99.90;20.20;97498.00;;;;5061263;28;20196;-66
2023/08/21 03:33:05;;;;;;;16.67;14.43;;;18.20;99.90;20.00;97495.00;;;;5067922;28;20701;-65
2023/08/21 03:35:55;;;;;;;19.77;15.57;;;18.10;99.90;19.80;97492.00;;;;5067989;28;20216;-65
2023/08/21 03:38:44;;;;;;;22.20;15.00;;;18.00;99.90;19.60;97491.00;;;;5068842;28;20208;-65
2023/08/21 03:41:34;;;;;;;19.33;15.97;;;17.80;99.90;19.90;97498.00;;;;5068735;28;20203;-65
2023/08/21 03:44:23;;;;;;;18.07;14.93;;;17.80;99.90;19.90;97498.00;;;;5068679;28;20224;-65
2023/08/21 03:47:13;;;;;;;17.80;15.87;;;17.80;99.90;19.80;97494.00;;;;5060671;28;20719;-66
2023/08/21 03:50:02;;;;;;;19.07;16.97;;;17.70;99.90;19.70;97496.00;;;;5068797;28;20204;-66
2023/08/21 03:52:51;;;;;;;17.73;15.80;;;17.70;99.90;19.50;97495.00;;;;5068117;28;20606;-66
2023/08/21 03:55:40;;;;;;;19.40;16.43;;;17.60;99.90;19.50;97494.00;;;;5067928;28;20247;-65
2023/08/21 03:58:30;;;;;;;18.47;15.30;;;17.60;99.90;19.40;97496.00;;;;5068789;28;20572;-66
2023/08/21 04:01:19;;;;;;;16.77;14.63;;;17.50;99.90;19.30;97488.00;;;;5068789;28;20208;-65
2023/08/21 04:04:07;;;;;;;17.77;14.93;;;17.50;99.90;19.40;97491.00;;;;5064935;28;20199;-66
2023/08/21 04:06:56;;;;;;;19.57;15.53;;;17.40;99.90;19.30;97486.00;;;;5067117;28;20683;-65
2023/08/21 04:09:45;;;;;;;20.10;14.63;;;17.40;99.90;19.10;97486.00;;;;5069234;28;20204;-67
2023/08/21 04:12:34;;;;;;;18.83;15.37;;;17.40;99.90;19.00;97486.00;;;;5068179;28;20208;-66
2023/08/21 04:15:24;;;;;;;23.60;16.20;;;17.30;99.90;19.20;97490.00;;;;5062630;28;20234;-65
2023/08/21 04:18:13;;;;;;;19.87;17.77;;;17.40;99.90;19.60;97504.00;;;;5061208;28;20573;-65
2023/08/21 04:21:04;;;;;;;21.40;18.57;;;17.50;99.90;19.90;97494.00;;;;5052409;28;20196;-65
2023/08/21 04:23:53;;;;;;;22.27;17.63;;;17.70;99.90;20.10;97498.00;;;;5064880;28;20192;-65
2023/08/21 04:26:42;;;;;;;21.57;18.43;;;17.80;99.90;20.00;97504.00;;;;5064233;28;20242;-65
2023/08/21 04:29:30;;;;;;;18.40;15.23;;;17.80;99.90;19.50;97499.00;;;;5069090;28;20685;-67
2023/08/21 04:32:21;;;;;;;18.13;14.67;;;17.70;99.90;19.40;97501.00;;;;5061271;28;20200;-65
2023/08/21 04:35:10;;;;;;;20.20;18.03;;;17.60;99.90;19.40;97509.00;;;;5060254;28;20220;-65
2023/08/21 04:37:59;;;;;;;17.83;15.00;;;17.50;99.90;19.30;97497.00;;;;5068441;28;20218;-66
2023/08/21 04:40:48;;;;;;;17.00;15.20;;;17.50;99.90;19.80;97509.00;;;;5067981;28;20196;-65
2023/08/21 04:43:37;;;;;;;21.30;16.10;;;17.50;99.90;19.60;97515.00;;;;5067839;28;20197;-66
2023/08/21 04:46:25;;;;;;;20.43;15.97;;;17.50;99.90;19.50;97517.00;;;;5066963;28;20220;-65
2023/08/21 04:49:16;;;;;;;22.87;19.03;;;17.50;99.90;20.00;97511.00;;;;5060847;28;20192;-65
2023/08/21 04:52:05;;;;;;;23.63;17.60;;;17.60;99.90;20.40;97519.00;;;;5058444;28;20628;-64
2023/08/21 04:54:54;;;;;;;22.23;16.90;;;17.70;99.90;20.10;97519.00;;;;5066499;28;20302;-65
2023/08/21 04:57:43;;;;;;;22.00;18.13;;;17.80;99.90;19.80;97509.00;;;;5067489;28;20200;-64
2023/08/21 05:00:32;;;;;;;20.03;14.67;;;17.80;99.90;19.70;97517.00;;;;5068311;28;20196;-65
2023/08/21 05:03:21;;;;;;;19.20;16.57;;;17.80;99.90;19.50;97518.00;;;;5063016;28;20203;-65
2023/08/21 05:06:11;;;;;;;18.33;16.33;;;17.70;99.90;20.10;97516.00;;;;5067810;28;20238;-67
2023/08/21 05:09:01;;;;;;;18.07;14.53;;;17.90;99.90;20.00;97514.00;;;;5068229;28;20219;-65
2023/08/21 05:11:50;;;;;;;19.33;16.00;;;17.90;99.90;20.20;97520.00;;;;5067170;28;20199;-66
2023/08/21 05:14:39;;;;;;;18.50;16.53;;;;;20.40;97523.00;;;;5069685;28;20695;-65
2023/08/21 05:17:28;;;;;;;18.73;16.17;;;;;20.50;97521.00;;;;5067583;28;20199;-65
2023/08/21 05:20:17;;;;;;;18.50;14.23;;;;;20.30;97512.00;;;;5061088;28;20709;-67
2023/08/21 05:23:08;;;;;;;21.10;15.30;;;;;20.30;97518.00;;;;5066627;28;20203;-65
2023/08/21 05:25:57;;;;;;;20.03;14.67;;;;;20.50;97522.00;;;;5067103;28;20632;-65
2023/08/21 05:28:46;;;;;;;20.80;14.60;;;;;20.70;97515.00;;;;5064429;28;20204;-65
2023/08/21 05:31:35;;;;;;;21.80;16.33;;;;;20.60;97518.00;;;;5061503;28;20196;-66
2023/08/21 05:34:25;;;;;;;20.63;16.17;;;;;20.80;97525.00;;;;5067433;28;20216;-65
2023/08/21 05:37:14;;;;;;;20.70;15.23;;;;;21.10;97528.00;;;;5064664;28;20203;-65
2023/08/21 05:40:07;;;;;;;18.97;13.63;;;;;21.00;97524.00;;;;5065697;28;21539;-65
2023/08/21 05:42:56;;;;;;;17.80;14.67;;;;;21.30;97529.00;;;;5067450;28;20211;-65
2023/08/21 05:45:45;;;;;;;20.73;15.70;;;;;21.70;97525.00;;;;5066975;28;20231;-66
2023/08/21 05:48:34;;;;;;;23.43;15.57;;;;;22.00;97523.00;;;;5062549;28;20231;-65
2023/08/21 05:51:23;;;;;;;20.87;16.07;;;;;22.20;97529.00;;;;5061543;28;20818;-66
2023/08/21 05:54:12;;;;;;;17.73;15.60;;;;;22.40;97528.00;;;;5066591;28;20682;-65
2023/08/21 05:57:03;;;;;;;18.20;15.90;;;;;22.80;97530.00;;;;5066975;28;20211;-66
2023/08/21 05:59:52;;;;;;;19.73;16.43;;;;;22.80;97524.00;;;;5065909;28;20200;-65
2023/08/21 06:02:41;;;;;;;17.67;14.60;;;;;22.90;97526.00;;;;5063220;28;20223;-66
2023/08/21 06:05:31;;;;;;;19.50;15.47;;;;;23.10;97518.00;;;;5065256;28;20220;-65
2023/08/21 06:08:20;;;;;;;18.97;15.13;;;;;23.20;97524.00;;;;5070749;28;20216;-66
2023/08/21 06:11:09;;;;;;;24.27;16.13;;;;;23.40;97521.00;;;;5065053;28;20207;-65
2023/08/21 06:13:59;;;;;;;18.60;14.30;;;;;23.30;97531.00;;;;5069265;28;20199;-66
2023/08/21 06:16:48;;;;;;;19.37;15.47;;;;;23.50;97530.00;;;;5070163;28;20200;-65
2023/08/21 06:19:37;;;;;;;17.20;15.17;;;;;23.70;97534.00;;;;5070888;28;20204;-65
2023/08/21 06:22:26;;;;;;;20.03;15.33;;;;;23.90;97528.00;;;;5063633;28;20204;-65
2023/08/21 06:25:15;;;;;;;20.23;15.63;;;;;24.30;97535.00;;;;5069287;28;20219;-65
2023/08/21 06:28:05;;;;;;;18.87;15.63;;;;;24.40;97528.00;;;;5069960;28;20239;-66
2023/08/21 06:30:59;;;;;;;20.53;15.57;;;;;24.80;97525.00;;;;5070097;28;20203;-65
2023/08/21 06:33:48;;;;;;;19.23;14.67;;;;;24.80;97521.00;;;;5069399;28;20211;-66
2023/08/21 06:36:37;;;;;;;19.73;15.47;;;;;25.10;97524.00;;;;5070575;28;20197;-66
2023/08/21 06:39:27;;;;;;;17.30;14.53;;;;;24.90;97524.00;;;;5064938;28;20199;-66
2023/08/21 06:42:16;;;;;;;19.77;13.83;;;;;24.90;97516.00;;;;5070908;28;20270;-66
2023/08/21 06:45:06;;;;;;;22.03;13.57;;;;;25.20;97524.00;;;;5061170;28;20223;-66
2023/08/21 06:47:56;;;;;;;18.87;13.93;;;;;25.20;97537.00;;;;5068258;28;20215;-66
2023/08/21 06:50:46;;;;;;;16.93;13.63;;;;;25.70;97522.00;;;;5058271;28;20659;-66
2023/08/21 06:53:35;;;;;;;16.93;13.37;;;;;25.40;97522.00;;;;5053937;28;20200;-67
2023/08/21 06:56:24;;;;;;;15.17;13.57;;;;;25.80;97519.00;;;;5058037;28;20203;-66
2023/08/21 06:59:13;;;;;;;16.17;14.53;;;;;25.90;97529.00;;;;5059172;28;20680;-65
2023/08/21 07:02:02;;;;;;;17.07;13.50;;;;;26.00;97524.00;;;;5067848;28;20204;-67
2023/08/21 07:04:52;;;;;;;15.53;13.77;;;;;26.20;97522.00;;;;5066315;28;20224;-66
2023/08/21 07:07:41;;;;;;;15.17;13.73;;;;;26.20;97519.00;;;;5069668;28;20633;-66
2023/08/21 07:10:31;;;;;;;14.87;13.17;;;;;26.50;97519.00;;;;5056860;28;20211;-66
2023/08/21 07:13:20;;;;;;;17.10;13.17;;;;;26.40;97524.00;;;;5049358;28;20220;-65
2023/08/21 07:16:09;;;;;;;18.50;13.90;;;;;26.80;97517.00;;;;5071138;28;20236;-66
2023/08/21 07:18:58;;;;;;;15.47;12.80;;;;;26.60;97524.00;;;;5050998;28;20204;-66
2023/08/21 07:21:49;;;;;;;14.00;12.60;;;;;27.10;97516.00;;;;5057759;28;20623;-66
2023/08/21 07:24:38;;;;;;;16.63;12.87;;;;;27.30;97522.00;;;;5057373;28;20217;-66
2023/08/21 07:27:27;;;;;;;16.63;12.93;;;;;27.40;97521.00;;;;5065993;28;20223;-66
2023/08/21 07:30:18;;;;;;;15.43;12.53;;;;;27.50;97514.00;;;;5067244;28;20221;-66
2023/08/21 07:33:07;;;;;;;13.90;12.17;;;;;27.20;97522.00;;;;5065889;28;20243;-67
2023/08/21 07:36:01;;;;;;;14.70;12.77;;;;;27.60;97521.00;;;;5062000;28;20228;-66
2023/08/21 07:38:51;;;;;;;18.23;14.03;;;;;27.50;97518.00;;;;5069248;28;20199;-66
2023/08/21 07:41:40;;;;;;;15.97;12.90;;;;;28.00;97520.00;;;;5063848;28;20207;-68
2023/08/21 07:44:29;;;;;;;14.53;12.17;;;;;28.20;97514.00;;;;5065778;28;20224;-66
2023/08/21 07:47:18;;;;;;;15.57;12.23;;;;;28.20;97510.00;;;;5065948;28;20203;-66
2023/08/21 07:50:09;;;;;;;14.60;12.77;;;;;28.70;97509.00;;;;5064552;28;20198;-66
2023/08/21 07:52:58;;;;;;;16.67;12.23;;;;;28.80;97497.00;;;;5059044;28;20260;-65
2023/08/21 07:55:48;;;;;;;18.33;12.47;;;;;29.00;97499.00;;;;5066729;28;20218;-66
2023/08/21 07:58:37;;;;;;;14.90;12.20;;;;;29.00;97495.00;;;;5065278;28;20668;-66
2023/08/21 08:01:26;;;;;;;16.63;12.80;;;;;29.30;97490.00;;;;5060474;28;20213;-66
2023/08/21 08:04:16;;;;;;;15.83;13.60;;;;;29.40;97490.00;;;;5062493;28;20212;-65
2023/08/21 08:07:05;;;;;;;15.77;11.90;;;;;29.30;97495.00;;;;5055305;28;20205;-65
2023/08/21 08:09:55;;;;;;;14.73;12.97;;;;;29.30;97485.00;;;;5064688;28;20672;-67
2023/08/21 08:12:46;;;;;;;14.87;12.10;;;;;29.60;97485.00;;;;5066069;28;20280;-67
2023/08/21 08:15:36;;;;;;;15.17;10.67;;;;;29.90;97488.00;;;;5063916;28;20244;-67
2023/08/21 08:18:25;;;;;;;15.50;13.10;;;;;29.90;97483.00;;;;5061814;28;20309;-67
2023/08/21 08:21:14;;;;;;;15.40;12.27;;;;;30.10;97491.00;;;;5062706;28;20217;-67
2023/08/21 08:24:03;;;;;;;17.80;13.03;;;;;30.20;97488.00;;;;5062586;28;20207;-66
2023/08/21 08:26:53;;;;;;;12.87;11.60;;;;;30.30;97487.00;;;;5054151;28;20210;-67
2023/08/21 08:29:44;;;;;;;16.20;13.07;;;;;30.60;97487.00;;;;5074781;28;20256;-67
2023/08/21 08:32:33;;;;;;;16.37;12.47;;;;;30.80;97488.00;;;;5065520;28;20200;-68
2023/08/21 08:35:22;;;;;;;16.17;11.93;;;;;31.10;97482.00;;;;5061634;28;20700;-68
2023/08/21 08:38:11;;;;;;;13.50;11.43;;;;;31.20;97484.00;;;;5073451;28;20205;-66
2023/08/21 08:41:02;;;;;;;16.53;12.60;;;;;31.40;97484.00;;;;5065100;28;20198;-68
2023/08/21 08:43:51;;;;;;;12.53;11.33;;;;;31.30;97479.00;;;;5064146;28;20216;-67
2023/08/21 08:46:42;;;;;;;11.90;10.80;;;;;31.40;97480.00;;;;5063243;28;20682;-65
2023/08/21 08:49:31;;;;;;;12.33;11.13;;;28.50;99.90;31.60;97473.00;;;;5059707;28;20212;-67
2023/08/21 08:52:20;;;;;;;18.00;11.70;;;28.50;99.90;31.70;97473.00;;;;5064510;28;20716;-66
2023/08/21 08:55:11;;;;;;;19.07;11.30;;;28.50;99.90;31.60;97467.00;;;;5069872;28;20233;-66
2023/08/21 08:57:59;;;;;;;13.97;12.03;;;28.60;99.90;31.90;97466.00;;;;5066314;28;20196;-66
2023/08/21 09:00:48;;;;;;;14.97;11.53;;;28.70;99.90;32.40;97473.00;;;;5066440;28;20222;-66
2023/08/21 09:03:38;;;;;;;13.38;10.98;;;28.90;99.90;32.50;97459.00;;;;5062705;28;20656;-66
2023/08/21 09:06:28;;;;;;;12.35;11.13;;;29.10;99.90;32.40;97465.00;;;;5065044;28;20219;-66
2023/08/21 09:09:17;;;;;;;12.20;10.93;;;29.30;99.90;32.60;97467.00;;;;5059707;28;20230;-66
2023/08/21 09:12:12;;;;;;;13.55;12.00;;;29.40;99.90;32.50;97458.00;;;;5064154;28;20206;-65
2023/08/21 09:15:01;;;;;;;13.00;11.23;;;29.50;99.90;32.80;97466.00;;;;5092450;22;20263;-69
2023/08/21 09:17:54;;;;;;;14.00;11.13;;;29.60;99.90;33.00;97461.00;;;;5084707;28;20558;-70
2023/08/21 09:20:45;;;;;;;14.95;11.88;;;29.80;99.90;33.30;97467.00;;;;5087218;28;20236;-69
2023/08/21 09:23:34;;;;;;;12.18;10.70;;;29.90;99.90;33.50;97457.00;;;;5083802;28;20202;-69
2023/08/21 09:26:23;;;;;;;12.57;11.27;;;30.20;99.90;33.60;97456.00;;;;5069484;28;20736;-69
2023/08/21 09:29:12;;;;;;;13.15;11.00;;;30.30;99.90;33.70;97461.00;;;;5064974;28;20225;-70
2023/08/21 09:32:01;;;;;;;14.10;11.48;;;30.40;99.90;33.80;97451.00;;;;5066409;28;20210;-68
2023/08/21 09:34:50;;;;;;;14.18;10.90;;;30.50;99.90;34.30;97453.00;;;;5069355;28;20219;-69
2023/08/21 09:37:40;;;;;;;14.00;10.73;;;30.70;99.90;34.60;97447.00;;;;5072102;28;20198;-70
2023/08/21 09:40:29;;;;;;;14.30;9.90;;;30.90;99.90;34.30;97450.00;;;;5071807;28;20199;-69
2023/08/21 09:43:18;;;;;;;10.43;9.40;;;31.00;99.90;34.50;97442.00;;;;5065404;28;20193;-68
2023/08/21 09:46:06;;;;;;;9.80;8.63;;;31.20;99.90;35.00;97440.00;;;;5070784;28;20596;-69
2023/08/21 09:48:55;;;;;;;10.00;8.35;;;31.40;99.90;35.20;97436.00;;;;5071798;28;20229;-68
2023/08/21 09:51:44;;;;;;;8.68;7.90;;;31.50;99.50;35.40;97438.00;;;;5071354;28;20199;-68
2023/08/21 09:54:35;;;;;;;8.70;7.80;;;31.80;99.10;35.50;97434.00;;;;5068601;28;20612;-69
2023/08/21 09:57:25;;;;;;;7.95;6.90;;;31.90;97.80;35.70;97431.00;;;;5070157;28;20838;-68
2023/08/21 10:00:17;;;;;;;8.07;7.25;;;32.10;96.40;35.80;97430.00;;;;5064605;28;20203;-68
2023/08/21 10:03:09;;;;;;;8.20;7.60;;;32.20;96.20;35.50;97420.00;;;;5070432;28;20361;-67
2023/08/21 10:06:00;;;;;;;7.70;6.93;;;32.30;94.80;36.00;97416.00;;;;5070297;28;20218;-69
2023/08/21 10:08:53;;;;;;;9.05;7.18;;;32.40;94.60;36.10;97417.00;;;;5067836;28;20234;-68
2023/08/21 10:11:44;;;;;;;7.78;7.07;;;32.50;92.60;36.00;97417.00;;;;5072483;28;20550;-68
2023/08/21 10:14:34;;;;;;;8.00;7.22;;;32.60;92.20;36.60;97416.00;;;;5069776;28;20698;-68
2023/08/21 10:17:23;;;;;;;7.18;6.07;;;32.80;92.70;36.20;97409.00;;;;5065944;28;20191;-67
2023/08/21 10:20:12;;;;;;;7.20;6.00;;;32.90;90.50;35.80;97409.00;;;;5063766;28;20200;-67
2023/08/21 10:23:03;;;;;;;7.50;6.53;;;32.90;85.50;35.60;97408.00;;;;5070138;28;20215;-67
2023/08/21 10:25:56;;;;;;;10.10;7.05;;;32.80;86.60;36.80;97412.00;;;;5071373;28;20239;-68
2023/08/21 10:28:54;;;;;;;11.77;7.28;;;33.00;88.10;36.80;97414.00;;;;5070035;28;20257;-68
2023/08/21 10:31:44;;;;;;;7.13;6.45;;;33.20;85.60;36.40;97404.00;;;;5070776;28;20584;-68
2023/08/21 10:34:34;;;;;;;8.25;6.90;;;33.30;83.60;35.60;97398.00;;;;5065442;28;20200;-69
2023/08/21 10:37:23;;;;;;;8.77;6.43;;;33.10;82.90;36.30;97405.00;;;;5069824;28;20207;-68
2023/08/21 10:40:24;;;;;;;8.18;7.28;;;33.10;84.50;36.50;97391.00;;;;5069932;28;20196;-67
2023/08/21 10:43:38;;;;;;;8.38;7.22;;;33.20;87.20;36.90;97399.00;;;;5072657;28;20614;-69
2023/08/21 10:46:28;;;;;;;7.38;6.07;;;33.30;84.20;37.40;97395.00;;;;5063241;28;20216;-69
2023/08/21 10:49:17;;;;;;;7.22;6.43;;;33.50;84.50;37.80;97393.00;;;;5062813;28;20234;-68
2023/08/21 10:52:06;;;;;;;6.35;5.82;;;33.80;84.00;37.90;97392.00;;;;5069658;28;20200;-69
2023/08/21 10:54:58;;;;;;;5.70;5.10;;;34.00;82.00;37.90;97393.00;;;;5070705;28;20223;-69
2023/08/21 10:57:49;;;;;;;6.60;5.90;;;34.30;78.80;38.40;97398.00;;;;5066962;28;20278;-69
2023/08/21 11:00:38;;;;;;;7.10;6.43;;;34.40;78.50;38.70;97385.00;;;;5065841;28;20219;-68
2023/08/21 11:03:28;;;;;;;6.40;5.80;;;34.80;77.90;38.80;97388.00;;;;5062099;28;20199;-69
2023/08/21 11:06:20;;;;;;;6.38;5.88;;;34.90;74.50;38.90;97386.00;;;;5063482;28;20346;-69
2023/08/21 11:09:14;;;;;;;7.95;6.13;;;35.10;75.90;39.10;97382.00;;;;5060881;28;20601;-69
2023/08/21 11:12:08;;;;;;;9.95;5.78;;;35.30;75.90;38.80;97377.00;;;;5069256;28;20682;-70
2023/08/21 11:14:57;;;;;;;6.30;5.80;;;35.30;72.00;39.50;97367.00;;;;5069222;28;20231;-68
2023/08/21 11:17:54;;;;;;;8.68;6.38;;;35.50;73.90;39.50;97367.00;;;;5070327;28;20211;-69
2023/08/21 11:20:45;;;;;;;8.20;7.18;;;35.70;73.90;39.50;97364.00;;;;5064640;28;20222;-68
2023/08/21 11:23:35;;;;;;;7.85;6.63;;;35.90;74.10;39.90;97368.00;;;;5064381;28;20195;-68
2023/08/21 11:26:26;;;;;;;7.28;6.07;;;36.00;75.50;39.30;97362.00;;;;5059213;28;20213;-68
2023/08/21 11:29:15;;;;;;;8.38;6.50;;;36.20;72.10;39.10;97365.00;;;;5069867;28;20204;-71
2023/08/21 11:32:06;;;;;;;7.65;6.85;;;36.00;72.50;39.80;97369.00;;;;5069136;28;20203;-69
2023/08/21 11:34:57;;;;;;;8.27;7.47;;;36.10;71.60;39.00;97366.00;;;;5060468;28;20231;-69
2023/08/21 11:37:47;;;;;;;7.40;6.40;;;36.20;70.50;39.90;97369.00;;;;5068960;28;20249;-68
2023/08/21 11:40:36;;;;;;;5.88;5.38;;;36.30;70.70;39.60;97360.00;;;;5067976;28;20249;-69
2023/08/21 11:43:36;;;;;;;7.13;6.43;;;36.40;70.20;40.60;97354.00;;;;5068492;28;20192;-69
2023/08/21 11:46:26;;;;;;;6.45;5.70;;;36.60;69.40;40.50;97360.00;;;;5063436;28;20696;-69
2023/08/21 11:49:18;;;;;;;7.43;6.00;;;36.80;67.20;39.20;97351.00;;;;5069746;28;20218;-69
2023/08/21 11:52:07;;;;;;;5.72;5.13;;;36.80;65.80;39.10;97360.00;;;;5068727;28;20204;-68
2023/08/21 11:54:57;;;;;;;8.65;6.60;;;36.50;64.80;40.70;97355.00;;;;5069430;28;20216;-69
2023/08/21 11:57:51;;;;;;;6.65;5.97;;;36.60;66.10;40.30;97362.00;;;;5069193;28;20204;-68
2023/08/21 12:00:41;;;;;;;9.68;6.80;;;36.80;64.30;41.50;97354.00;;;;5067195;28;20669;-69
2023/08/21 12:03:31;;;;;;;7.07;5.47;;;37.10;65.40;41.10;97351.00;;;;5065970;28;20208;-69
2023/08/21 12:06:19;;;;;;;6.22;5.63;;;37.40;62.50;39.70;97357.00;;;;5064583;28;20281;-69
2023/08/21 12:09:08;;;;;;;6.50;6.00;;;37.20;62.50;40.80;97348.00;;;;5066632;28;20849;-68
2023/08/21 12:11:59;;;;;;;6.57;5.88;;;37.30;62.40;41.20;97354.00;;;;5068287;28;20203;-68
2023/08/21 12:14:47;;;;;;;5.53;5.03;;;37.40;61.50;41.40;97354.00;;;;5070449;28;20231;-69
2023/08/21 12:17:36;;;;;;;6.95;5.13;;;37.60;60.10;42.20;97341.00;;;;5069002;28;20599;-69
2023/08/21 12:20:25;;;;;;;5.70;5.20;;;37.90;61.40;42.30;97347.00;;;;5062144;28;20200;-68
2023/08/21 12:23:14;;;;;;;4.82;4.43;;;38.20;60.10;42.70;97338.00;;;;5061715;28;20200;-69
2023/08/21 12:26:03;;;;;;;5.25;4.78;;;38.50;58.00;42.10;97337.00;;;;5068498;28;20585;-69
2023/08/21 12:28:53;;;;;;;6.38;5.55;;;38.60;57.50;42.50;97334.00;;;;5068228;28;20200;-69
2023/08/21 12:31:42;;;;;;;6.38;4.93;;;38.70;57.00;42.70;97328.00;;;;5068786;28;20242;-68
2023/08/21 12:34:32;;;;;;;5.22;4.68;;;38.90;57.40;41.50;97333.00;;;;5063579;28;20192;-68
2023/08/21 12:37:25;;;;;;;6.50;5.47;;;38.80;54.90;42.30;97324.00;;;;5058040;28;20212;-69
2023/08/21 12:40:14;;;;;;;7.10;4.75;;;38.70;56.60;42.70;97322.00;;;;5061437;28;20219;-69
2023/08/21 12:43:03;;;;;;;5.35;4.32;;;38.80;55.60;41.00;97334.00;;;;5068655;28;20211;-69
2023/08/21 12:45:53;;;;;;;6.40;5.80;;;38.80;52.60;40.80;97330.00;;;;5068267;28;20395;-69